createdAt,value
2019-02-16T00:00:44.962Z,8.10
2019-02-16T00:03:12.939Z,7.30
2019-02-16T00:05:40.526Z,7.70
2019-02-16T00:08:08.402Z,6.90
2019-02-16T00:10:36.684Z,7.60
2019-02-16T00:13:04.806Z,7.23
2019-02-16T00:15:32.532Z,7.80
2019-02-16T00:18:00.279Z,7.60
2019-02-16T00:20:28.447Z,7.55
2019-02-16T00:22:56.817Z,6.80
2019-02-16T00:25:24.558Z,7.58
2019-02-16T00:27:53.327Z,8.70
2019-02-16T00:30:22.241Z,8.80
2019-02-16T00:32:50.206Z,8.20
2019-02-16T00:35:18.182Z,8.20
2019-02-16T00:37:46.150Z,8.23
2019-02-16T00:40:14.223Z,7.90
2019-02-16T00:42:42.493Z,7.75
2019-02-16T00:45:12.174Z,7.97
2019-02-16T00:47:40.589Z,7.75
2019-02-16T00:50:08.433Z,7.30
2019-02-16T00:52:37.949Z,7.17
2019-02-16T00:55:05.465Z,6.72
2019-02-16T00:57:34.284Z,6.55
2019-02-16T01:00:05.473Z,6.80
2019-02-16T01:02:34.186Z,6.92
2019-02-16T01:05:02.251Z,7.47
2019-02-16T01:07:30.659Z,8.17
2019-02-16T01:09:59.239Z,8.20
2019-02-16T01:12:27.018Z,7.50
2019-02-16T01:14:56.267Z,8.70
2019-02-16T01:17:23.824Z,7.95
2019-02-16T01:19:51.563Z,8.47
2019-02-16T01:22:20.011Z,8.40
2019-02-16T01:24:48.320Z,7.75
2019-02-16T01:27:17.272Z,6.90
2019-02-16T01:29:45.168Z,7.60
2019-02-16T01:32:13.213Z,7.25
2019-02-16T01:34:41.480Z,7.07
2019-02-16T01:37:09.443Z,7.10
2019-02-16T01:39:38.723Z,7.00
2019-02-16T01:42:06.702Z,6.97
2019-02-16T01:44:34.432Z,7.73
2019-02-16T01:47:03.366Z,7.45
2019-02-16T01:49:31.098Z,7.90
2019-02-16T01:51:59.540Z,7.67
2019-02-16T01:54:27.865Z,8.77
2019-02-16T01:56:55.634Z,8.25
2019-02-16T01:59:24.074Z,8.08
2019-02-16T02:01:52.686Z,8.00
2019-02-16T02:04:20.548Z,7.70
2019-02-16T02:06:48.247Z,6.95
2019-02-16T02:09:16.342Z,7.00
2019-02-16T02:11:43.915Z,7.25
2019-02-16T02:14:11.927Z,6.80
2019-02-16T02:16:40.471Z,7.40
2019-02-16T02:19:08.451Z,6.83
2019-02-16T02:21:41.203Z,7.43
2019-02-16T02:24:05.766Z,7.50
2019-02-16T02:26:33.829Z,8.60
2019-02-16T02:29:01.384Z,8.27
2019-02-16T02:31:29.718Z,8.30
2019-02-16T02:33:57.696Z,8.45
2019-02-16T02:36:25.296Z,8.88
2019-02-16T02:38:53.393Z,8.20
2019-02-16T02:41:21.327Z,9.70
2019-02-16T02:43:48.979Z,9.10
2019-02-16T02:46:17.123Z,9.25
2019-02-16T02:48:46.913Z,9.65
2019-02-16T02:51:14.725Z,8.30
2019-02-16T02:53:42.411Z,7.40
2019-02-16T02:56:11.806Z,7.80
2019-02-16T02:58:39.964Z,8.33
2019-02-16T03:01:26.526Z,7.58
2019-02-16T03:03:55.681Z,7.40
2019-02-16T03:06:25.738Z,8.70
2019-02-16T03:08:53.557Z,9.50
2019-02-16T03:11:23.119Z,9.25
2019-02-16T03:13:51.787Z,9.63
2019-02-16T03:16:20.185Z,8.85
2019-02-16T03:18:47.832Z,9.30
2019-02-16T03:21:18.185Z,8.80
2019-02-16T03:23:45.860Z,7.80
2019-02-16T03:26:28.076Z,7.90
2019-02-16T03:29:36.361Z,7.55
2019-02-16T03:32:49.701Z,8.40
2019-02-16T03:37:09.043Z,9.17
2019-02-16T03:39:42.975Z,7.65
2019-02-16T03:42:11.007Z,8.57
2019-02-16T03:44:39.181Z,8.97
2019-02-16T03:47:07.394Z,7.40
2019-02-16T03:49:35.433Z,8.20
2019-02-16T03:52:12.935Z,7.15
2019-02-16T03:54:34.000Z,7.60
2019-02-16T03:57:01.903Z,7.65
2019-02-16T03:59:29.733Z,7.43
2019-02-16T04:01:57.864Z,7.37
2019-02-16T04:04:26.504Z,7.58
2019-02-16T04:06:54.883Z,6.37
2019-02-16T04:09:22.863Z,7.95
2019-02-16T04:11:51.184Z,8.30
2019-02-16T04:14:19.398Z,8.30
2019-02-16T04:16:48.363Z,8.83
2019-02-16T04:19:16.886Z,8.20
2019-02-16T04:21:45.233Z,8.45
2019-02-16T04:24:13.160Z,8.07
2019-02-16T04:26:41.219Z,8.07
2019-02-16T04:29:08.897Z,7.15
2019-02-16T04:31:37.930Z,7.60
2019-02-16T04:34:06.707Z,7.40
2019-02-16T04:36:35.341Z,7.25
2019-02-16T04:39:04.540Z,7.15
2019-02-16T04:41:32.930Z,7.37
2019-02-16T04:44:01.008Z,6.65
2019-02-16T04:46:29.322Z,6.40
2019-02-16T04:48:58.649Z,7.60
2019-02-16T04:51:26.766Z,7.50
2019-02-16T04:53:54.348Z,8.15
2019-02-16T04:56:23.040Z,7.45
2019-02-16T04:58:50.771Z,7.60
2019-02-16T05:01:19.097Z,7.55
2019-02-16T05:03:47.194Z,7.40
2019-02-16T05:06:15.053Z,8.15
2019-02-16T05:08:43.198Z,7.37
2019-02-16T05:11:11.678Z,7.03
2019-02-16T05:13:39.712Z,6.60
2019-02-16T05:16:08.461Z,6.90
2019-02-16T05:18:36.806Z,6.65
2019-02-16T05:21:07.756Z,5.73
2019-02-16T05:23:36.470Z,6.30
2019-02-16T05:28:47.376Z,7.70
2019-02-16T05:31:14.595Z,7.47
2019-02-16T05:33:41.771Z,7.55
2019-02-16T05:36:09.047Z,7.40
2019-02-16T05:38:36.201Z,6.80
2019-02-16T05:41:03.352Z,7.45
2019-02-16T05:43:30.664Z,7.30
2019-02-16T05:45:57.954Z,7.33
2019-02-16T05:48:25.875Z,7.30
2019-02-16T05:50:53.100Z,7.40
2019-02-16T05:53:20.401Z,6.90
2019-02-16T05:55:48.519Z,6.90
2019-02-16T05:58:16.347Z,7.50
2019-02-16T06:00:43.837Z,6.27
2019-02-16T06:03:12.015Z,6.75
2019-02-16T06:05:40.901Z,6.70
2019-02-16T06:08:09.132Z,6.70
2019-02-16T06:10:36.690Z,6.00
2019-02-16T06:13:03.968Z,6.30
2019-02-16T06:15:31.703Z,6.70
2019-02-16T06:17:59.465Z,7.05
2019-02-16T06:20:27.897Z,7.05
2019-02-16T06:23:03.927Z,7.30
2019-02-16T06:25:25.354Z,7.23
2019-02-16T06:27:52.547Z,7.60
2019-02-16T06:30:19.752Z,7.20
2019-02-16T06:32:47.995Z,6.50
2019-02-16T06:35:28.924Z,6.00
2019-02-16T06:37:56.325Z,6.10
2019-02-16T06:40:23.547Z,5.90
2019-02-16T06:42:50.872Z,6.10
2019-02-16T06:45:18.167Z,5.70
2019-02-16T06:47:45.966Z,5.73
2019-02-16T06:50:14.108Z,6.20
2019-02-16T06:54:57.903Z,6.10
2019-02-16T06:57:29.691Z,6.90
2019-02-16T06:59:56.853Z,6.80
2019-02-16T07:02:25.963Z,6.95
2019-02-16T07:04:54.220Z,7.20
2019-02-16T07:07:22.375Z,6.80
2019-02-16T07:09:49.649Z,6.90
2019-02-16T07:12:18.395Z,6.40
2019-02-16T07:14:46.455Z,6.00
2019-02-16T07:17:36.044Z,5.50
2019-02-16T07:20:04.095Z,6.45
2019-02-16T07:22:31.522Z,5.80
2019-02-16T07:24:59.585Z,6.20
2019-02-16T07:27:26.759Z,5.23
2019-02-16T07:29:54.837Z,5.87
2019-02-16T07:32:23.026Z,6.45
2019-02-16T07:34:50.879Z,6.30
2019-02-16T07:37:18.784Z,5.70
2019-02-16T07:39:47.010Z,6.35
2019-02-16T07:42:14.760Z,5.90
2019-02-16T07:45:01.135Z,5.83
2019-02-16T07:47:34.037Z,5.60
2019-02-16T07:50:19.926Z,5.80
2019-02-16T07:53:01.567Z,5.20
2019-02-16T07:55:32.959Z,5.30
2019-02-16T07:58:06.955Z,5.20
2019-02-16T08:00:57.906Z,6.47
2019-02-16T08:03:44.053Z,6.30
2019-02-16T08:06:29.466Z,5.60
2019-02-16T08:09:04.785Z,5.67
2019-02-16T08:11:57.674Z,5.60
2019-02-16T08:14:44.136Z,5.15
2019-02-16T08:19:08.892Z,5.30
2019-02-16T08:21:46.492Z,6.40
2019-02-16T08:24:33.348Z,5.80
2019-02-16T08:27:18.589Z,5.70
2019-02-16T08:29:55.807Z,5.45
2019-02-16T08:32:48.480Z,4.60
2019-02-16T08:35:29.299Z,5.40
2019-02-16T08:38:12.458Z,5.40
2019-02-16T08:41:02.033Z,5.30
2019-02-16T08:43:46.569Z,6.13
2019-02-16T08:46:30.273Z,5.45
2019-02-16T08:49:16.313Z,5.30
2019-02-16T08:51:49.351Z,5.33
2019-02-16T08:54:40.772Z,5.60
2019-02-16T08:57:24.258Z,5.95
2019-02-16T09:00:23.220Z,5.53
2019-02-16T09:02:58.307Z,5.00
2019-02-16T09:05:38.241Z,5.00
2019-02-16T09:08:25.097Z,4.80
2019-02-16T09:11:12.732Z,5.70
2019-02-16T09:14:30.842Z,6.20
2019-02-16T09:17:31.944Z,5.30
2019-02-16T09:20:19.041Z,6.77
2019-02-16T09:22:53.033Z,6.10
2019-02-16T09:25:28.548Z,5.85
2019-02-16T09:28:15.656Z,5.70
2019-02-16T09:31:10.386Z,6.80
2019-02-16T09:33:46.765Z,6.35
2019-02-16T09:36:25.545Z,6.80
2019-02-16T09:41:26.070Z,6.90
2019-02-16T09:44:11.854Z,7.62
2019-02-16T09:47:01.843Z,6.70
2019-02-16T09:49:47.864Z,7.10
2019-02-16T09:52:34.776Z,6.07
2019-02-16T09:55:17.903Z,6.70
2019-02-16T09:58:04.677Z,6.45
2019-02-16T10:01:04.611Z,6.67
2019-02-16T10:03:51.208Z,6.37
2019-02-16T10:06:38.514Z,6.27
2019-02-16T10:09:24.266Z,7.05
2019-02-16T10:12:23.613Z,6.50
2019-02-16T10:15:10.671Z,6.53
2019-02-16T10:17:49.901Z,5.90
2019-02-16T10:20:24.776Z,6.60
2019-02-16T10:23:11.409Z,6.70
2019-02-16T10:25:49.839Z,6.90
2019-02-16T10:28:35.191Z,6.53
2019-02-16T10:31:25.768Z,6.25
2019-02-16T10:34:32.057Z,6.40
2019-02-16T10:37:11.496Z,8.45
2019-02-16T10:40:05.130Z,8.10
2019-02-16T10:42:56.085Z,6.63
2019-02-16T10:45:39.293Z,6.35
2019-02-16T10:48:26.350Z,6.20
2019-02-16T10:51:04.561Z,6.80
2019-02-16T10:53:56.330Z,6.12
2019-02-16T10:56:43.035Z,5.90
2019-02-16T11:03:29.565Z,6.55
2019-02-16T11:06:23.450Z,7.03
2019-02-16T11:09:17.549Z,6.25
2019-02-16T11:11:58.115Z,5.97
2019-02-16T11:14:46.207Z,8.20
2019-02-16T11:17:53.132Z,10.90
2019-02-16T11:20:41.936Z,10.87
2019-02-16T11:23:30.863Z,11.80
2019-02-16T11:26:28.988Z,12.55
2019-02-16T11:29:13.187Z,11.93
2019-02-16T11:34:56.711Z,12.40
2019-02-16T11:37:38.432Z,11.05
2019-02-16T11:47:20.905Z,9.73
2019-02-16T11:50:05.424Z,8.40
2019-02-16T11:53:08.793Z,8.23
2019-02-16T11:55:44.354Z,7.92
2019-02-16T11:58:22.790Z,6.45
2019-02-16T12:01:14.107Z,7.00
2019-02-16T12:03:57.197Z,7.70
2019-02-16T12:06:30.322Z,7.08
2019-02-16T12:09:24.136Z,6.12
2019-02-16T12:12:14.754Z,6.33
2019-02-16T12:15:05.149Z,7.05
2019-02-16T12:17:42.366Z,7.60
2019-02-16T12:20:33.154Z,6.65
2019-02-16T12:23:04.906Z,7.30
2019-02-16T12:28:39.871Z,7.45
2019-02-16T12:31:27.476Z,6.55
2019-02-16T12:34:06.321Z,6.70
2019-02-16T12:37:00.740Z,6.55
2019-02-16T12:39:58.839Z,6.30
2019-02-16T12:42:46.468Z,6.60
2019-02-16T12:45:50.966Z,7.20
2019-02-16T12:51:03.675Z,6.03
2019-02-16T12:54:01.921Z,6.35
2019-02-16T12:56:48.749Z,6.17
2019-02-16T12:59:35.647Z,7.35
2019-02-16T13:02:28.919Z,8.28
2019-02-16T13:05:22.686Z,6.97
2019-02-16T13:08:09.641Z,6.15
2019-02-16T13:11:09.479Z,6.20
2019-02-16T13:13:59.035Z,7.85
2019-02-16T13:16:31.919Z,6.75
2019-02-16T13:19:21.858Z,7.20
2019-02-16T13:21:55.419Z,6.92
2019-02-16T13:24:46.703Z,6.20
2019-02-16T13:27:39.779Z,6.28
2019-02-16T13:30:14.269Z,6.85
2019-02-16T13:33:11.083Z,6.33
2019-02-16T13:35:58.390Z,6.45
2019-02-16T13:38:48.266Z,5.90
2019-02-16T13:41:36.367Z,6.15
2019-02-16T13:44:43.305Z,6.97
2019-02-16T13:50:27.471Z,8.33
2019-02-16T13:53:21.917Z,7.40
2019-02-16T13:56:01.689Z,7.05
2019-02-16T14:01:34.836Z,6.50
2019-02-16T14:05:22.468Z,7.72
2019-02-16T14:07:58.406Z,6.80
2019-02-16T14:10:45.577Z,7.53
2019-02-16T14:13:33.399Z,6.78
2019-02-16T14:16:15.989Z,7.30
2019-02-16T14:18:44.523Z,7.60
2019-02-16T14:21:19.198Z,8.10
2019-02-16T14:23:50.594Z,8.37
2019-02-16T14:26:19.258Z,7.22
2019-02-16T14:28:48.614Z,8.67
2019-02-16T14:33:46.515Z,7.92
2019-02-16T14:36:15.138Z,8.43
2019-02-16T14:38:54.921Z,7.75
2019-02-16T14:41:23.309Z,9.00
2019-02-16T14:43:52.011Z,8.55
2019-02-16T14:46:22.392Z,8.10
2019-02-16T14:51:19.265Z,8.78
2019-02-16T14:53:47.847Z,8.00
2019-02-16T14:56:16.870Z,8.60
2019-02-16T14:58:45.240Z,9.85
2019-02-16T15:01:13.617Z,8.30
2019-02-16T15:03:42.947Z,8.75
2019-02-16T15:06:12.033Z,8.90
2019-02-16T15:08:40.218Z,8.60
2019-02-16T15:11:08.438Z,8.58
2019-02-16T15:13:36.971Z,9.18
2019-02-16T15:16:05.231Z,8.05
2019-02-16T15:18:33.726Z,8.23
2019-02-16T15:21:01.615Z,8.83
2019-02-16T15:23:29.528Z,8.40
2019-02-16T15:26:01.013Z,9.00
2019-02-16T15:28:28.127Z,8.85
2019-02-16T15:30:56.799Z,9.05
2019-02-16T15:33:25.160Z,8.63
2019-02-16T15:35:53.696Z,9.05
2019-02-16T15:38:22.781Z,9.40
2019-02-16T15:40:50.996Z,8.25
2019-02-16T15:43:19.736Z,9.00
2019-02-16T15:45:48.072Z,8.90
2019-02-16T15:48:16.277Z,8.40
2019-02-16T15:50:44.152Z,9.33
2019-02-16T15:53:12.937Z,8.60
2019-02-16T15:55:41.670Z,9.43
2019-02-16T15:58:09.953Z,8.95
2019-02-16T16:00:38.443Z,7.93
2019-02-16T16:03:07.453Z,8.43
2019-02-16T16:05:36.082Z,8.20
2019-02-16T16:08:22.683Z,8.40
2019-02-16T16:11:03.007Z,8.30
2019-02-16T16:13:49.807Z,9.47
2019-02-16T16:16:34.134Z,9.00
2019-02-16T16:19:24.537Z,8.70
2019-02-16T16:22:27.952Z,7.87
2019-02-16T16:25:16.115Z,9.48
2019-02-16T16:28:13.815Z,9.45
2019-02-16T16:31:04.097Z,7.77
2019-02-16T16:34:00.381Z,8.80
2019-02-16T16:36:57.400Z,10.23
2019-02-16T16:39:37.567Z,8.00
2019-02-16T16:42:29.577Z,8.50
2019-02-16T16:48:08.103Z,9.65
2019-02-16T16:50:55.231Z,11.12
2019-02-16T16:53:41.205Z,10.23
2019-02-16T16:56:31.880Z,10.00
2019-02-16T16:59:27.556Z,10.73
2019-02-16T17:05:07.007Z,10.95
2019-02-16T17:07:42.521Z,10.00
2019-02-16T17:10:36.231Z,8.70
2019-02-16T17:13:14.363Z,9.70
2019-02-16T17:15:52.191Z,10.00
2019-02-16T17:18:39.767Z,9.90
2019-02-16T17:21:23.216Z,10.78
2019-02-16T17:24:11.787Z,8.98
2019-02-16T17:26:59.641Z,8.45
2019-02-16T17:29:53.708Z,8.10
2019-02-16T17:32:41.133Z,9.70
2019-02-16T17:35:26.241Z,10.20
2019-02-16T17:38:16.489Z,8.80
2019-02-16T17:43:45.581Z,8.60
2019-02-16T17:46:35.961Z,9.70
2019-02-16T17:49:34.009Z,11.50
2019-02-16T17:52:18.618Z,9.40
2019-02-16T17:55:12.382Z,8.60
2019-02-16T18:00:49.275Z,10.87
2019-02-16T18:03:46.735Z,9.40
2019-02-16T18:06:34.772Z,9.47
2019-02-16T18:09:35.699Z,9.40
2019-02-16T18:12:20.754Z,9.28
2019-02-16T18:15:11.378Z,10.00
2019-02-16T18:18:05.312Z,8.65
2019-02-16T18:21:03.337Z,8.20
2019-02-16T18:26:35.204Z,10.85
2019-02-16T18:29:26.177Z,9.40
2019-02-16T18:32:14.080Z,8.83
2019-02-16T18:35:01.745Z,8.10
2019-02-16T18:37:52.707Z,9.85
2019-02-16T18:43:53.234Z,8.70
2019-02-16T18:46:37.886Z,8.97
2019-02-16T18:49:28.167Z,10.60
2019-02-16T18:52:15.135Z,12.60
2019-02-16T18:55:11.109Z,10.58
2019-02-16T18:57:57.252Z,8.75
2019-02-16T19:03:09.653Z,11.73
2019-02-16T19:06:12.747Z,11.95
2019-02-16T19:08:53.710Z,11.48
2019-02-16T19:11:43.491Z,8.78
2019-02-16T19:14:32.400Z,10.93
2019-02-16T19:17:09.410Z,11.40
2019-02-16T19:20:13.075Z,12.20
2019-02-16T19:25:39.274Z,9.97
2019-02-16T19:28:33.608Z,11.00
2019-02-16T19:31:27.543Z,11.48
2019-02-16T19:34:33.871Z,11.57
2019-02-16T19:37:21.679Z,10.10
2019-02-16T19:40:08.499Z,10.53
2019-02-16T19:43:15.395Z,11.30
2019-02-16T19:46:02.071Z,11.80
2019-02-16T19:48:50.236Z,10.45
2019-02-16T19:51:38.480Z,10.35
2019-02-16T19:54:27.355Z,10.05
2019-02-16T19:57:06.990Z,12.82
2019-02-16T20:00:06.201Z,13.60
2019-02-16T20:03:07.025Z,10.50
2019-02-16T20:05:45.863Z,10.80
2019-02-16T20:11:06.306Z,11.45
2019-02-16T20:13:53.776Z,13.45
2019-02-16T20:16:44.609Z,18.40
2019-02-16T20:19:23.530Z,14.33
2019-02-16T20:22:14.254Z,15.10
2019-02-16T20:25:05.114Z,14.78
2019-02-16T20:27:59.813Z,14.10
2019-02-16T20:30:42.421Z,13.18
2019-02-16T20:33:20.391Z,12.98
2019-02-16T20:36:11.640Z,12.28
2019-02-16T20:38:58.954Z,12.50
2019-02-16T20:41:47.184Z,14.20
2019-02-16T20:44:34.062Z,14.20
2019-02-16T20:47:12.851Z,12.30
2019-02-16T20:50:06.251Z,12.35
2019-02-16T20:52:48.050Z,13.05
2019-02-16T20:55:36.154Z,14.90
2019-02-16T20:58:17.548Z,14.55
2019-02-16T21:00:53.219Z,13.95
2019-02-16T21:03:57.253Z,12.15
2019-02-16T21:06:32.446Z,13.38
2019-02-16T21:09:26.033Z,13.68
2019-02-16T21:12:18.207Z,15.80
2019-02-16T21:14:54.955Z,15.72
2019-02-16T21:18:55.618Z,14.73
2019-02-16T21:27:59.918Z,16.50
2019-02-16T21:30:37.640Z,15.53
2019-02-16T21:33:28.575Z,16.37
2019-02-16T21:36:16.263Z,13.85
2019-02-16T21:41:43.668Z,15.03
2019-02-16T21:44:20.060Z,15.38
2019-02-16T21:47:11.547Z,15.23
2019-02-16T21:50:02.964Z,15.63
2019-02-16T21:52:51.108Z,13.75
2019-02-16T21:55:36.967Z,13.75
2019-02-16T21:58:24.647Z,15.80
2019-02-16T22:01:21.225Z,16.30
2019-02-16T22:03:57.317Z,14.10
2019-02-16T22:06:33.297Z,13.83
2019-02-16T22:09:39.268Z,14.40
2019-02-16T22:12:42.740Z,15.10
2019-02-16T22:15:11.023Z,15.53
2019-02-16T22:17:39.250Z,14.60
2019-02-16T22:20:10.253Z,14.80
2019-02-16T22:22:38.075Z,13.75
2019-02-16T22:25:06.146Z,14.70
2019-02-16T22:27:34.501Z,14.15
2019-02-16T22:30:03.220Z,14.90
2019-02-16T22:32:31.341Z,14.10
2019-02-16T22:35:00.500Z,13.80
2019-02-16T22:37:28.498Z,15.20
2019-02-16T22:39:57.492Z,15.45
2019-02-16T22:42:25.756Z,16.70
2019-02-16T22:44:54.249Z,16.45
2019-02-16T22:47:22.369Z,16.90
2019-02-16T22:49:52.175Z,16.00
2019-02-16T22:52:20.941Z,15.80
2019-02-16T22:54:50.590Z,17.42
2019-02-16T22:57:18.861Z,15.85
2019-02-16T22:59:47.528Z,14.80
2019-02-16T23:02:15.685Z,14.23
2019-02-16T23:04:43.931Z,14.00
2019-02-16T23:07:12.623Z,14.95
2019-02-16T23:12:14.032Z,14.60
2019-02-16T23:14:42.271Z,14.63
2019-02-16T23:17:10.907Z,14.00
2019-02-16T23:19:39.327Z,14.70
2019-02-16T23:22:07.516Z,14.30
2019-02-16T23:24:37.010Z,17.23
2019-02-16T23:27:04.804Z,15.20
2019-02-16T23:29:33.462Z,15.87
2019-02-16T23:32:01.925Z,15.10
2019-02-16T23:34:30.362Z,15.10
2019-02-16T23:36:58.813Z,14.70
2019-02-16T23:39:27.339Z,13.90
2019-02-16T23:41:55.640Z,13.95
2019-02-16T23:44:26.628Z,13.80
2019-02-16T23:46:54.703Z,13.23
2019-02-16T23:49:25.625Z,14.10
2019-02-16T23:51:53.624Z,13.00
2019-02-16T23:54:22.414Z,14.40
2019-02-16T23:56:51.723Z,13.90
2019-02-16T23:59:20.965Z,13.30
